createdAt,value
2023-05-17T00:01:49.994Z,9.60
2023-05-17T00:04:17.974Z,9.20
2023-05-17T00:06:45.856Z,8.90
2023-05-17T00:09:13.813Z,8.90
2023-05-17T00:11:41.640Z,8.20
2023-05-17T00:14:12.597Z,8.20
2023-05-17T00:16:40.582Z,7.30
2023-05-17T00:19:09.855Z,7.10
2023-05-17T00:21:38.178Z,7.30
2023-05-17T00:24:06.227Z,6.00
2023-05-17T00:26:34.348Z,5.70
2023-05-17T00:29:02.238Z,5.40
2023-05-17T00:31:29.998Z,5.30
2023-05-17T00:33:57.757Z,5.40
2023-05-17T00:36:25.865Z,5.30
2023-05-17T00:38:53.791Z,5.70
2023-05-17T00:41:21.647Z,5.10
2023-05-17T00:43:49.879Z,4.20
2023-05-17T00:46:17.800Z,5.00
2023-05-17T00:48:45.799Z,4.40
2023-05-17T00:51:14.586Z,4.20
2023-05-17T00:53:43.159Z,3.90
2023-05-17T00:56:11.107Z,3.70
2023-05-17T00:58:40.784Z,4.50
2023-05-17T01:01:08.633Z,4.20
2023-05-17T01:03:36.612Z,3.80
2023-05-17T01:06:05.416Z,4.00
2023-05-17T01:08:33.380Z,4.00
2023-05-17T01:11:33.776Z,3.60
2023-05-17T01:14:23.784Z,3.50
2023-05-17T01:17:14.782Z,3.40
2023-05-17T01:19:51.953Z,3.50
2023-05-17T01:22:31.695Z,3.30
2023-05-17T01:25:18.010Z,3.00
2023-05-17T01:27:49.091Z,4.20
2023-05-17T01:30:18.558Z,3.80
2023-05-17T01:32:46.682Z,2.90
2023-05-17T01:35:14.621Z,2.40
2023-05-17T01:37:42.373Z,3.40
2023-05-17T01:40:11.078Z,2.30
2023-05-17T01:42:42.839Z,2.60
2023-05-17T01:45:14.033Z,2.40
2023-05-17T01:47:45.838Z,3.00
2023-05-17T01:50:15.601Z,2.30
2023-05-17T01:52:59.668Z,2.60
2023-05-17T01:55:33.381Z,2.50
2023-05-17T01:58:06.937Z,2.30
2023-05-17T02:00:34.987Z,2.30
2023-05-17T02:03:03.096Z,2.10
2023-05-17T02:05:31.158Z,2.50
2023-05-17T02:07:59.154Z,2.20
2023-05-17T02:10:27.048Z,2.00
2023-05-17T02:12:55.886Z,1.80
2023-05-17T02:15:23.868Z,1.90
2023-05-17T02:17:52.237Z,1.70
2023-05-17T02:20:20.331Z,2.00
2023-05-17T02:22:48.148Z,2.60
2023-05-17T02:25:16.252Z,2.20
2023-05-17T02:27:44.215Z,2.20
2023-05-17T02:30:15.639Z,1.90
2023-05-17T02:32:44.959Z,2.20
2023-05-17T02:35:12.990Z,2.20
2023-05-17T02:37:41.629Z,1.80
2023-05-17T02:40:10.645Z,2.40
2023-05-17T02:42:38.600Z,2.40
2023-05-17T02:45:06.689Z,2.20
2023-05-17T02:47:34.967Z,2.40
2023-05-17T02:50:02.974Z,1.70
2023-05-17T02:52:30.857Z,1.70
2023-05-17T02:54:58.937Z,1.90
2023-05-17T02:57:30.515Z,1.80
2023-05-17T02:59:58.374Z,2.10
2023-05-17T03:02:27.044Z,2.20
2023-05-17T03:04:55.225Z,2.20
2023-05-17T03:07:23.124Z,1.70
2023-05-17T03:09:51.154Z,1.80
2023-05-17T03:12:18.949Z,2.30
2023-05-17T03:14:46.738Z,1.80
2023-05-17T03:17:14.666Z,2.90
2023-05-17T03:19:42.596Z,2.10
2023-05-17T03:22:10.839Z,2.00
2023-05-17T03:24:41.703Z,2.10
2023-05-17T03:27:09.486Z,2.00
2023-05-17T03:29:37.415Z,2.60
2023-05-17T03:32:05.575Z,2.60
2023-05-17T03:34:33.369Z,2.10
2023-05-17T03:37:01.564Z,2.20
2023-05-17T03:39:29.353Z,3.00
2023-05-17T03:41:57.222Z,2.80
2023-05-17T03:44:25.092Z,2.10
2023-05-17T03:46:53.070Z,2.30
2023-05-17T03:49:21.072Z,3.20
2023-05-17T03:51:49.001Z,2.00
2023-05-17T03:54:16.758Z,2.20
2023-05-17T03:56:47.267Z,2.10
2023-05-17T03:59:15.923Z,2.30
2023-05-17T04:01:43.861Z,2.00
2023-05-17T04:04:11.812Z,2.00
2023-05-17T04:06:40.179Z,1.80
2023-05-17T04:09:10.616Z,2.30
2023-05-17T04:11:40.578Z,2.60
2023-05-17T04:14:08.534Z,2.10
2023-05-17T04:16:36.531Z,2.00
2023-05-17T04:19:04.509Z,2.20
2023-05-17T04:21:32.454Z,1.70
2023-05-17T04:24:00.879Z,2.30
2023-05-17T04:26:28.966Z,2.00
2023-05-17T04:28:57.009Z,1.60
2023-05-17T04:31:25.001Z,2.40
2023-05-17T04:33:53.063Z,1.80
2023-05-17T04:36:21.117Z,1.90
2023-05-17T04:38:48.968Z,2.10
2023-05-17T04:41:16.957Z,2.10
2023-05-17T04:43:44.752Z,1.70
2023-05-17T04:46:12.588Z,2.60
2023-05-17T04:48:40.650Z,1.60
2023-05-17T04:51:08.462Z,1.50
2023-05-17T04:53:36.396Z,2.00
2023-05-17T04:56:04.281Z,1.50
2023-05-17T04:58:32.292Z,1.90
2023-05-17T05:01:00.183Z,1.80
2023-05-17T05:03:28.170Z,2.60
2023-05-17T05:05:56.014Z,1.90
2023-05-17T05:08:23.846Z,2.10
2023-05-17T05:10:51.611Z,2.70
2023-05-17T05:13:19.427Z,2.10
2023-05-17T05:15:47.215Z,2.60
2023-05-17T05:18:15.139Z,2.40
2023-05-17T05:20:43.166Z,3.40
2023-05-17T05:23:11.354Z,4.00
2023-05-17T05:25:39.325Z,2.50
2023-05-17T05:28:07.213Z,2.30
2023-05-17T05:30:35.012Z,2.80
2023-05-17T05:33:03.737Z,2.10
2023-05-17T05:35:32.122Z,2.60
2023-05-17T05:38:00.429Z,2.70
2023-05-17T05:40:28.689Z,2.20
2023-05-17T05:42:56.752Z,2.60
2023-05-17T05:45:24.687Z,2.50
2023-05-17T05:47:52.732Z,3.10
2023-05-17T05:50:20.838Z,2.10
2023-05-17T05:52:48.713Z,2.90
2023-05-17T05:55:16.606Z,2.70
2023-05-17T05:57:44.498Z,2.90
2023-05-17T06:00:12.797Z,2.70
2023-05-17T06:02:40.818Z,2.90
2023-05-17T06:05:09.661Z,2.60
2023-05-17T06:07:37.556Z,3.00
2023-05-17T06:10:05.687Z,2.90
2023-05-17T06:12:33.512Z,2.70
2023-05-17T06:15:01.336Z,3.20
2023-05-17T06:17:29.194Z,3.10
2023-05-17T06:19:57.437Z,3.20
2023-05-17T06:22:25.329Z,3.10
2023-05-17T06:24:53.324Z,3.10
2023-05-17T06:27:21.130Z,2.60
2023-05-17T06:29:49.043Z,2.50
2023-05-17T06:32:16.858Z,2.50
2023-05-17T06:34:45.691Z,3.00
2023-05-17T06:37:13.574Z,2.60
2023-05-17T06:39:42.590Z,2.80
2023-05-17T06:42:13.083Z,2.70
2023-05-17T06:44:40.950Z,2.60
2023-05-17T06:47:08.873Z,2.50
2023-05-17T06:49:37.635Z,2.60
2023-05-17T06:52:05.888Z,2.50
2023-05-17T06:54:33.781Z,3.60
2023-05-17T06:57:02.300Z,2.70
2023-05-17T06:59:30.635Z,3.20
2023-05-17T07:02:00.321Z,2.70
2023-05-17T07:04:28.374Z,3.10
2023-05-17T07:06:56.380Z,3.00
2023-05-17T07:09:24.310Z,2.50
2023-05-17T07:11:52.227Z,3.60
2023-05-17T07:14:20.151Z,3.00
2023-05-17T07:16:49.288Z,2.80
2023-05-17T07:19:17.346Z,2.80
2023-05-17T07:21:45.678Z,3.50
2023-05-17T07:24:13.581Z,2.90
2023-05-17T07:26:41.719Z,3.20
2023-05-17T07:29:09.721Z,2.50
2023-05-17T07:31:37.669Z,3.10
2023-05-17T07:34:05.602Z,2.50
2023-05-17T07:36:33.644Z,3.10
2023-05-17T07:39:05.301Z,2.80
2023-05-17T07:41:34.271Z,2.80
2023-05-17T07:44:06.007Z,3.20
2023-05-17T07:46:34.106Z,2.20
2023-05-17T07:49:02.088Z,2.40
2023-05-17T07:51:30.035Z,2.00
2023-05-17T07:53:57.853Z,2.50
2023-05-17T07:56:25.718Z,2.40
2023-05-17T07:58:55.546Z,3.10
2023-05-17T08:01:23.774Z,2.70
2023-05-17T08:03:51.699Z,2.50
2023-05-17T08:06:19.558Z,3.30
2023-05-17T08:08:47.592Z,2.60
2023-05-17T08:11:15.488Z,2.00
2023-05-17T08:13:44.315Z,2.60
2023-05-17T08:16:14.029Z,2.90
2023-05-17T08:18:43.608Z,2.00
2023-05-17T08:21:11.881Z,1.90
2023-05-17T08:23:40.923Z,2.00
2023-05-17T08:26:08.942Z,2.40
2023-05-17T08:28:36.737Z,1.90
2023-05-17T08:31:05.006Z,1.70
2023-05-17T08:33:33.111Z,2.50
2023-05-17T08:36:03.002Z,1.80
2023-05-17T08:38:30.974Z,1.90
2023-05-17T08:40:59.958Z,1.50
2023-05-17T08:43:28.237Z,1.80
2023-05-17T08:45:59.335Z,2.10
2023-05-17T08:48:27.603Z,2.00
2023-05-17T08:50:55.996Z,2.30
2023-05-17T08:53:24.276Z,2.30
2023-05-17T08:55:55.924Z,2.20
2023-05-17T08:58:26.419Z,2.10
2023-05-17T09:00:54.705Z,2.20
2023-05-17T09:03:22.794Z,1.80
2023-05-17T09:05:53.943Z,3.20
2023-05-17T09:08:22.456Z,2.30
2023-05-17T09:10:50.740Z,2.10
2023-05-17T09:13:18.709Z,1.40
2023-05-17T09:15:49.913Z,2.30
2023-05-17T09:18:19.533Z,1.70
2023-05-17T09:20:51.810Z,1.80
2023-05-17T09:23:21.070Z,1.50
2023-05-17T09:25:49.310Z,2.10
2023-05-17T09:28:18.716Z,1.50
2023-05-17T09:30:48.185Z,1.50
2023-05-17T09:33:18.616Z,1.60
2023-05-17T09:35:46.876Z,2.50
2023-05-17T09:38:14.665Z,2.30
2023-05-17T09:40:47.900Z,2.10
2023-05-17T09:43:17.147Z,1.60
2023-05-17T09:45:44.899Z,2.00
2023-05-17T09:48:16.949Z,2.00
2023-05-17T09:50:45.253Z,2.40
2023-05-17T09:53:23.487Z,1.70
2023-05-17T09:55:54.987Z,1.80
2023-05-17T09:58:23.203Z,1.30
2023-05-17T10:00:53.060Z,1.60
2023-05-17T10:03:21.142Z,1.90
2023-05-17T10:05:51.530Z,1.40
2023-05-17T10:08:23.226Z,1.90
2023-05-17T10:10:51.453Z,1.70
2023-05-17T10:13:22.279Z,2.10
2023-05-17T10:15:50.872Z,1.60
2023-05-17T10:18:18.751Z,2.40
2023-05-17T10:20:47.517Z,1.60
2023-05-17T10:23:15.673Z,1.50
2023-05-17T10:25:43.713Z,1.40
2023-05-17T10:28:12.720Z,2.00
2023-05-17T10:30:40.737Z,1.80
2023-05-17T10:33:09.184Z,1.70
2023-05-17T10:35:39.394Z,1.80
2023-05-17T10:38:08.369Z,1.60
2023-05-17T10:40:36.913Z,1.90
2023-05-17T10:43:05.434Z,2.30
2023-05-17T10:45:33.821Z,1.70
2023-05-17T10:48:05.776Z,1.70
2023-05-17T10:50:37.656Z,2.20
2023-05-17T10:53:08.671Z,2.00
2023-05-17T10:55:38.876Z,2.00
2023-05-17T10:58:20.051Z,2.00
2023-05-17T11:00:49.301Z,2.00
2023-05-17T11:03:28.808Z,2.00
2023-05-17T11:06:21.975Z,2.00
2023-05-17T11:09:08.076Z,1.80
2023-05-17T11:11:36.823Z,1.70
2023-05-17T11:14:05.488Z,2.00
2023-05-17T11:16:37.597Z,2.40
2023-05-17T11:19:09.700Z,2.10
2023-05-17T11:21:47.480Z,2.50
2023-05-17T11:24:26.914Z,3.40
2023-05-17T11:26:55.624Z,2.10
2023-05-17T11:29:28.612Z,1.70
2023-05-17T11:31:56.675Z,1.80
2023-05-17T11:34:25.629Z,1.90
2023-05-17T11:36:54.729Z,2.30
2023-05-17T11:39:23.744Z,2.10
2023-05-17T11:41:52.917Z,1.90
2023-05-17T11:44:25.382Z,1.90
2023-05-17T11:47:00.528Z,1.80
2023-05-17T11:49:35.687Z,2.30
2023-05-17T11:52:06.250Z,2.30
2023-05-17T11:54:34.895Z,1.80
2023-05-17T11:57:04.063Z,2.40
2023-05-17T11:59:37.441Z,2.50
2023-05-17T12:02:05.726Z,1.90
2023-05-17T12:04:35.551Z,1.80
2023-05-17T12:07:04.434Z,2.10
2023-05-17T12:09:32.219Z,2.10
2023-05-17T12:12:04.040Z,2.40
2023-05-17T12:14:32.031Z,2.70
2023-05-17T12:17:02.080Z,2.30
2023-05-17T12:19:32.522Z,2.00
2023-05-17T12:22:13.912Z,2.70
2023-05-17T12:24:45.159Z,1.50
2023-05-17T12:27:13.022Z,1.30
2023-05-17T12:29:41.215Z,2.00
2023-05-17T12:32:10.181Z,1.60
2023-05-17T12:34:38.535Z,1.60
2023-05-17T12:37:10.670Z,1.50
2023-05-17T12:39:39.380Z,1.40
2023-05-17T12:42:07.586Z,1.20
2023-05-17T12:44:35.737Z,1.90
2023-05-17T12:47:03.726Z,1.90
2023-05-17T12:49:37.522Z,1.80
2023-05-17T12:52:05.709Z,1.60
2023-05-17T12:54:33.903Z,1.80
2023-05-17T12:57:21.430Z,1.60
2023-05-17T12:59:50.102Z,1.50
2023-05-17T13:02:19.585Z,1.30
2023-05-17T13:04:48.242Z,1.90
2023-05-17T13:07:23.996Z,1.50
2023-05-17T13:09:52.191Z,1.40
2023-05-17T13:12:21.352Z,2.00
2023-05-17T13:14:52.084Z,1.50
2023-05-17T13:17:23.002Z,1.40
2023-05-17T13:19:51.223Z,2.50
2023-05-17T13:22:19.181Z,1.60
2023-05-17T13:24:47.050Z,1.40
2023-05-17T13:27:14.939Z,1.70
2023-05-17T13:29:43.195Z,1.60
2023-05-17T13:32:12.493Z,2.10
2023-05-17T13:34:41.318Z,1.60
2023-05-17T13:37:12.457Z,1.40
2023-05-17T13:39:41.893Z,2.10
2023-05-17T13:42:11.059Z,1.60
2023-05-17T13:44:39.487Z,1.40
2023-05-17T13:47:07.456Z,1.20
2023-05-17T13:49:35.329Z,1.70
2023-05-17T13:52:03.816Z,1.70
2023-05-17T13:54:31.651Z,1.40
2023-05-17T13:56:59.466Z,1.60
2023-05-17T13:59:27.330Z,1.40
2023-05-17T14:01:55.268Z,1.00
2023-05-17T14:04:23.137Z,1.60
2023-05-17T14:06:54.844Z,1.10
2023-05-17T14:09:23.191Z,2.00
2023-05-17T14:11:51.076Z,1.40
2023-05-17T14:14:19.139Z,2.20
2023-05-17T14:16:46.906Z,1.80
2023-05-17T14:19:14.758Z,1.90
2023-05-17T14:21:42.532Z,1.70
2023-05-17T14:24:10.500Z,1.10
2023-05-17T14:26:38.571Z,2.30
2023-05-17T14:29:06.373Z,1.50
2023-05-17T14:31:34.325Z,2.00
2023-05-17T14:34:03.887Z,1.70
2023-05-17T14:36:33.992Z,1.40
2023-05-17T14:39:01.916Z,1.70
2023-05-17T14:41:29.873Z,1.20
2023-05-17T14:43:57.715Z,3.00
2023-05-17T14:46:25.630Z,1.60
2023-05-17T14:48:53.611Z,1.70
2023-05-17T14:51:21.662Z,2.20
2023-05-17T14:53:49.583Z,1.40
2023-05-17T14:56:17.794Z,1.40
2023-05-17T14:58:45.731Z,1.40
2023-05-17T15:01:13.752Z,2.20
2023-05-17T15:03:41.867Z,2.10
2023-05-17T15:06:11.829Z,1.60
2023-05-17T15:08:39.859Z,1.90
2023-05-17T15:11:14.085Z,1.80
2023-05-17T15:13:42.726Z,2.00
2023-05-17T15:16:10.622Z,1.90
2023-05-17T15:18:38.497Z,3.00
2023-05-17T15:21:06.698Z,2.00
2023-05-17T15:23:34.606Z,1.60
2023-05-17T15:26:02.473Z,1.70
2023-05-17T15:28:30.329Z,1.90
2023-05-17T15:31:06.416Z,1.60
2023-05-17T15:33:34.378Z,1.70
2023-05-17T15:36:02.230Z,1.60
2023-05-17T15:38:30.404Z,1.90
2023-05-17T15:41:04.000Z,1.50
2023-05-17T15:43:32.673Z,1.50
2023-05-17T15:46:00.914Z,1.90
2023-05-17T15:48:31.765Z,1.70
2023-05-17T15:50:59.921Z,2.20
2023-05-17T15:53:28.403Z,1.70
2023-05-17T15:55:56.373Z,1.80
2023-05-17T15:58:24.738Z,1.60
2023-05-17T16:00:52.649Z,1.70
2023-05-17T16:03:20.990Z,1.50
2023-05-17T16:05:48.794Z,1.90
2023-05-17T16:08:16.568Z,1.80
2023-05-17T16:10:44.454Z,1.50
2023-05-17T16:13:12.232Z,2.00
2023-05-17T16:15:40.206Z,1.50
2023-05-17T16:18:10.721Z,1.60
2023-05-17T16:20:38.701Z,2.10
2023-05-17T16:23:06.884Z,2.20
2023-05-17T16:25:35.217Z,1.60
2023-05-17T16:28:03.028Z,2.40
2023-05-17T16:30:30.804Z,1.20
2023-05-17T16:32:58.806Z,1.80
2023-05-17T16:35:26.807Z,1.90
2023-05-17T16:37:54.707Z,2.60
2023-05-17T16:40:22.469Z,2.80
2023-05-17T16:42:50.454Z,3.00
2023-05-17T16:45:18.338Z,2.60
2023-05-17T16:47:46.228Z,3.00
2023-05-17T16:50:14.180Z,2.60
2023-05-17T16:52:41.958Z,2.20
2023-05-17T16:55:10.147Z,2.70
2023-05-17T16:57:37.910Z,2.20
2023-05-17T17:00:06.058Z,1.40
2023-05-17T17:02:33.903Z,2.10
2023-05-17T17:05:04.408Z,2.30
2023-05-17T17:07:32.272Z,2.40
2023-05-17T17:10:00.090Z,2.20
2023-05-17T17:12:27.967Z,2.50
2023-05-17T17:14:55.948Z,2.90
2023-05-17T17:17:23.722Z,3.20
2023-05-17T17:19:52.347Z,2.50
2023-05-17T17:22:20.240Z,2.10
2023-05-17T17:24:48.247Z,2.00
2023-05-17T17:27:16.082Z,1.90
2023-05-17T17:29:43.856Z,1.80
2023-05-17T17:32:11.603Z,2.10
2023-05-17T17:34:39.597Z,2.40
2023-05-17T17:37:07.678Z,1.90
2023-05-17T17:39:35.467Z,2.60
2023-05-17T17:42:03.279Z,3.70
2023-05-17T17:44:31.300Z,2.30
2023-05-17T17:46:59.042Z,2.40
2023-05-17T17:49:26.886Z,2.40
2023-05-17T17:51:54.730Z,2.20
2023-05-17T17:54:22.561Z,2.10
2023-05-17T17:56:50.416Z,1.90
2023-05-17T17:59:18.268Z,1.90
2023-05-17T18:01:46.220Z,2.10
2023-05-17T18:04:16.188Z,2.00
2023-05-17T18:06:45.883Z,2.00
2023-05-17T18:09:13.986Z,2.10
2023-05-17T18:11:42.001Z,2.40
2023-05-17T18:14:09.916Z,2.10
2023-05-17T18:16:37.895Z,2.10
2023-05-17T18:19:06.013Z,2.10
2023-05-17T18:21:33.971Z,1.90
2023-05-17T18:24:01.734Z,2.10
2023-05-17T18:26:30.143Z,2.60
2023-05-17T18:28:58.406Z,1.70
2023-05-17T18:31:26.356Z,2.00
2023-05-17T18:33:56.437Z,1.90
2023-05-17T18:36:25.209Z,2.40
2023-05-17T18:38:53.462Z,2.10
2023-05-17T18:41:21.480Z,2.10
2023-05-17T18:43:49.281Z,2.00
2023-05-17T18:46:17.357Z,1.80
2023-05-17T18:48:45.279Z,1.80
2023-05-17T18:51:13.156Z,1.90
2023-05-17T18:53:41.026Z,2.30
2023-05-17T18:56:08.867Z,2.50
2023-05-17T18:58:37.053Z,1.90
2023-05-17T19:01:05.052Z,1.90
2023-05-17T19:03:33.093Z,2.40
2023-05-17T19:06:01.212Z,2.20
2023-05-17T19:08:29.098Z,2.20
2023-05-17T19:10:57.262Z,1.90
2023-05-17T19:13:27.290Z,1.90
2023-05-17T19:15:55.468Z,1.80
2023-05-17T19:18:23.437Z,2.40
2023-05-17T19:20:54.469Z,1.90
2023-05-17T19:23:22.714Z,1.80
2023-05-17T19:25:51.579Z,2.00
2023-05-17T19:28:19.636Z,1.80
2023-05-17T19:30:47.655Z,2.10
2023-05-17T19:33:16.513Z,2.40
2023-05-17T19:35:44.697Z,2.00
2023-05-17T19:38:12.576Z,2.40
2023-05-17T19:40:40.928Z,1.90
2023-05-17T19:43:08.791Z,3.20
2023-05-17T19:45:36.603Z,1.90
2023-05-17T19:48:25.713Z,3.00
2023-05-17T19:51:06.755Z,2.70
2023-05-17T19:53:50.944Z,2.40
2023-05-17T19:56:22.796Z,2.80
2023-05-17T19:58:51.232Z,2.20
2023-05-17T20:01:19.211Z,2.30
2023-05-17T20:03:47.378Z,2.30
2023-05-17T20:06:15.261Z,3.50
2023-05-17T20:08:43.075Z,2.40
2023-05-17T20:11:11.196Z,3.00
2023-05-17T20:13:42.111Z,2.70
2023-05-17T20:16:13.158Z,2.50
2023-05-17T20:18:42.917Z,2.40
2023-05-17T20:21:12.783Z,2.90
2023-05-17T20:23:41.051Z,2.90
2023-05-17T20:26:15.997Z,3.00
2023-05-17T20:28:44.633Z,2.00
2023-05-17T20:31:12.571Z,2.10
2023-05-17T20:33:40.737Z,2.00
2023-05-17T20:36:11.721Z,2.20
2023-05-17T20:38:39.483Z,2.30
2023-05-17T20:41:07.648Z,2.40
2023-05-17T20:43:36.827Z,2.40
2023-05-17T20:46:07.203Z,2.30
2023-05-17T20:48:39.761Z,2.80
2023-05-17T20:51:07.897Z,2.50
2023-05-17T20:53:36.229Z,2.30
2023-05-17T20:56:04.091Z,2.70
2023-05-17T20:58:32.207Z,2.00
2023-05-17T21:01:01.098Z,2.40
2023-05-17T21:03:33.173Z,2.80
2023-05-17T21:06:01.842Z,2.40
2023-05-17T21:08:30.439Z,2.30
2023-05-17T21:10:58.839Z,2.70
2023-05-17T21:13:27.139Z,2.70
2023-05-17T21:15:55.620Z,2.40
2023-05-17T21:18:23.855Z,2.30
2023-05-17T21:20:52.356Z,2.20
2023-05-17T21:23:20.388Z,2.00
2023-05-17T21:25:49.147Z,2.40
2023-05-17T21:28:17.056Z,3.40
2023-05-17T21:30:44.922Z,2.30
2023-05-17T21:33:12.891Z,2.80
2023-05-17T21:35:40.853Z,2.60
2023-05-17T21:38:09.613Z,3.10
2023-05-17T21:40:38.336Z,2.30
2023-05-17T21:43:07.818Z,2.40
2023-05-17T21:45:35.877Z,2.40
2023-05-17T21:48:04.295Z,3.10
2023-05-17T21:50:32.652Z,2.60
2023-05-17T21:53:00.884Z,3.20
2023-05-17T21:55:36.501Z,2.80
2023-05-17T21:58:16.383Z,3.00
2023-05-17T22:00:44.446Z,2.50
2023-05-17T22:03:12.507Z,2.70
2023-05-17T22:05:40.633Z,2.60
2023-05-17T22:08:08.513Z,2.20
2023-05-17T22:13:26.846Z,2.20
2023-05-17T22:15:57.462Z,2.70
2023-05-17T22:18:27.180Z,2.40
2023-05-17T22:20:55.455Z,2.80
2023-05-17T22:23:23.160Z,2.70
2023-05-17T22:25:51.349Z,2.10
2023-05-17T22:28:19.264Z,2.00
2023-05-17T22:30:47.111Z,2.50
2023-05-17T22:33:15.125Z,2.00
2023-05-17T22:35:43.095Z,2.30
2023-05-17T22:38:11.093Z,3.10
2023-05-17T22:40:39.021Z,3.10
2023-05-17T22:43:08.314Z,2.70
2023-05-17T22:45:36.811Z,2.10
2023-05-17T22:48:05.793Z,2.10
2023-05-17T22:50:33.811Z,2.10
2023-05-17T22:53:01.707Z,2.90
2023-05-17T22:55:29.988Z,2.40
2023-05-17T22:57:58.219Z,3.30
2023-05-17T23:00:26.412Z,3.50
2023-05-17T23:02:54.385Z,2.40
2023-05-17T23:05:22.725Z,2.80
2023-05-17T23:07:50.598Z,2.40
2023-05-17T23:10:18.350Z,2.20
2023-05-17T23:12:46.249Z,2.20
2023-05-17T23:15:16.294Z,1.70
2023-05-17T23:17:44.176Z,2.80
2023-05-17T23:20:12.272Z,3.20
2023-05-17T23:22:40.382Z,2.60
2023-05-17T23:25:08.490Z,2.40
2023-05-17T23:27:39.685Z,1.60
2023-05-17T23:30:07.826Z,1.60
2023-05-17T23:32:36.103Z,2.30
2023-05-17T23:35:08.993Z,1.40
2023-05-17T23:37:37.088Z,2.00
2023-05-17T23:40:05.750Z,1.90
2023-05-17T23:42:33.675Z,1.60
2023-05-17T23:45:01.893Z,2.10
2023-05-17T23:47:30.819Z,1.80
2023-05-17T23:49:58.697Z,1.60
2023-05-17T23:52:30.028Z,1.80
2023-05-17T23:54:59.082Z,1.90
2023-05-17T23:57:27.115Z,2.10
2023-05-17T23:59:54.835Z,1.80
